createdAt,value
2017-09-08T00:00:49.118Z,79.7
2017-09-08T00:01:52.489Z,79.4
2017-09-08T00:02:56.399Z,79.6
2017-09-08T00:03:59.927Z,79.7
2017-09-08T00:05:01.719Z,79.7
2017-09-08T00:06:03.761Z,79.4
2017-09-08T00:07:06.771Z,79.2
2017-09-08T00:08:23.105Z,79.3
2017-09-08T00:09:39.164Z,78.8
2017-09-08T00:10:45.239Z,79.7
2017-09-08T00:11:48.522Z,79.6
2017-09-08T00:12:51.531Z,79.2
2017-09-08T00:13:53.500Z,79.7
2017-09-08T00:14:57.780Z,79.0
2017-09-08T00:16:04.091Z,79.5
2017-09-08T00:17:07.258Z,79.9
2017-09-08T00:18:10.978Z,79.7
2017-09-08T00:19:14.664Z,79.3
2017-09-08T00:20:16.439Z,79.5
2017-09-08T00:21:18.088Z,79.3
2017-09-08T00:22:20.086Z,79.3
2017-09-08T00:23:22.827Z,79.7
2017-09-08T00:24:25.419Z,79.6
2017-09-08T00:25:27.898Z,79.7
2017-09-08T00:26:30.429Z,79.4
2017-09-08T00:27:34.431Z,79.4
2017-09-08T00:28:37.681Z,79.4
2017-09-08T00:29:42.065Z,79.2
2017-09-08T00:30:45.683Z,79.4
2017-09-08T00:31:47.626Z,79.5
2017-09-08T00:32:49.244Z,79.9
2017-09-08T00:33:51.061Z,79.4
2017-09-08T00:34:54.006Z,79.5
2017-09-08T00:35:57.215Z,79.6
2017-09-08T00:36:59.606Z,79.5
2017-09-08T00:38:01.341Z,79.6
2017-09-08T00:39:03.654Z,79.4
2017-09-08T00:40:05.270Z,79.5
2017-09-08T00:41:06.886Z,79.5
2017-09-08T00:42:10.159Z,79.5
2017-09-08T00:43:13.743Z,79.1
2017-09-08T00:44:16.407Z,79.5
2017-09-08T00:45:18.040Z,79.4
2017-09-08T00:46:19.660Z,79.6
2017-09-08T00:47:21.272Z,79.8
2017-09-08T00:48:22.889Z,79.6
2017-09-08T00:49:24.506Z,79.5
2017-09-08T00:50:26.128Z,79.7
2017-09-08T00:51:27.745Z,79.4
2017-09-08T00:52:29.360Z,79.3
2017-09-08T00:53:30.976Z,79.1
2017-09-08T00:54:32.584Z,79.6
2017-09-08T00:55:34.193Z,79.4
2017-09-08T00:56:35.813Z,79.4
2017-09-08T00:57:37.428Z,79.6
2017-09-08T00:58:39.040Z,79.8
2017-09-08T00:59:40.656Z,79.3
2017-09-08T01:00:42.265Z,79.6
2017-09-08T01:01:43.882Z,79.7
2017-09-08T01:02:45.494Z,79.2
2017-09-08T01:03:47.112Z,79.5
2017-09-08T01:04:48.725Z,79.4
2017-09-08T01:05:50.332Z,79.3
2017-09-08T01:06:51.948Z,79.2
2017-09-08T01:07:53.561Z,79.1
2017-09-08T01:08:55.173Z,78.9
2017-09-08T01:09:56.784Z,79.1
2017-09-08T01:10:58.403Z,78.9
2017-09-08T01:12:00.019Z,78.5
2017-09-08T01:13:01.629Z,78.8
2017-09-08T01:14:03.239Z,79.1
2017-09-08T01:15:04.856Z,79.2
2017-09-08T01:16:06.466Z,79.0
2017-09-08T01:17:08.085Z,78.6
2017-09-08T01:18:09.694Z,78.7
2017-09-08T01:19:11.314Z,78.6
2017-09-08T01:20:12.918Z,79.1
2017-09-08T01:21:14.535Z,78.7
2017-09-08T01:22:16.145Z,79.0
2017-09-08T01:23:17.758Z,78.8
2017-09-08T01:24:19.374Z,78.6
2017-09-08T01:25:20.985Z,78.5
2017-09-08T01:26:22.602Z,78.6
2017-09-08T01:27:24.211Z,78.4
2017-09-08T01:28:25.828Z,78.6
2017-09-08T01:29:27.438Z,78.6
2017-09-08T01:30:29.059Z,78.6
2017-09-08T01:31:30.664Z,78.2
2017-09-08T01:32:32.280Z,78.7
2017-09-08T01:33:33.892Z,78.8
2017-09-08T01:34:35.512Z,78.6
2017-09-08T01:35:37.126Z,78.8
2017-09-08T01:36:38.736Z,78.5
2017-09-08T01:37:40.346Z,78.2
2017-09-08T01:38:41.960Z,78.6
2017-09-08T01:39:43.572Z,78.2
2017-09-08T01:40:45.188Z,78.6
2017-09-08T01:41:46.812Z,78.3
2017-09-08T01:42:48.425Z,78.2
2017-09-08T01:43:50.031Z,78.4
2017-09-08T01:44:51.642Z,78.4
2017-09-08T01:45:53.250Z,78.8
2017-09-08T01:46:54.857Z,78.6
2017-09-08T01:47:56.471Z,78.9
2017-09-08T01:48:58.080Z,78.6
2017-09-08T01:49:59.684Z,78.8
2017-09-08T01:51:01.300Z,78.6
2017-09-08T01:52:02.905Z,78.8
2017-09-08T01:53:04.517Z,78.9
2017-09-08T01:54:06.122Z,79.1
2017-09-08T01:55:07.730Z,79.2
2017-09-08T01:56:09.347Z,79.1
2017-09-08T01:57:10.945Z,79.1
2017-09-08T01:58:12.558Z,79.5
2017-09-08T01:59:14.163Z,79.6
2017-09-08T02:00:15.778Z,79.7
2017-09-08T02:01:17.383Z,79.9
2017-09-08T02:02:18.996Z,79.7
2017-09-08T02:03:20.604Z,79.2
2017-09-08T02:04:22.209Z,79.4
2017-09-08T02:05:23.813Z,79.6
2017-09-08T02:06:25.426Z,79.8
2017-09-08T02:07:27.033Z,79.7
2017-09-08T02:08:28.649Z,79.2
2017-09-08T02:09:30.253Z,79.6
2017-09-08T02:10:31.866Z,79.5
2017-09-08T02:11:33.474Z,79.4
2017-09-08T02:12:35.077Z,79.4
2017-09-08T02:13:36.684Z,79.5
2017-09-08T02:14:38.294Z,79.3
2017-09-08T02:15:39.912Z,79.5
2017-09-08T02:16:41.513Z,79.8
2017-09-08T02:17:43.122Z,79.5
2017-09-08T02:18:44.732Z,79.5
2017-09-08T02:19:46.337Z,79.7
2017-09-08T02:20:47.952Z,79.5
2017-09-08T02:21:49.559Z,79.5
2017-09-08T02:22:51.173Z,79.7
2017-09-08T02:23:52.784Z,79.7
2017-09-08T02:24:54.391Z,79.9
2017-09-08T02:25:55.998Z,79.6
2017-09-08T02:26:57.608Z,79.3
2017-09-08T02:27:59.213Z,79.3
2017-09-08T02:29:00.829Z,79.5
2017-09-08T02:30:02.438Z,79.9
2017-09-08T02:31:04.044Z,79.2
2017-09-08T02:32:05.648Z,79.3
2017-09-08T02:33:07.261Z,79.3
2017-09-08T02:34:08.888Z,79.4
2017-09-08T02:35:10.479Z,79.9
2017-09-08T02:36:12.088Z,79.6
2017-09-08T02:37:13.700Z,79.5
2017-09-08T02:38:15.309Z,79.4
2017-09-08T02:39:16.916Z,79.4
2017-09-08T02:40:18.527Z,79.4
2017-09-08T02:41:20.136Z,79.5
2017-09-08T02:42:21.741Z,79.5
2017-09-08T02:43:23.354Z,79.4
2017-09-08T02:44:24.966Z,79.1
2017-09-08T02:45:26.572Z,79.8
2017-09-08T02:46:28.199Z,79.4
2017-09-08T02:47:29.803Z,79.7
2017-09-08T02:48:31.413Z,80.3
2017-09-08T02:49:33.017Z,80.7
2017-09-08T02:50:34.629Z,79.8
2017-09-08T02:51:36.235Z,79.9
2017-09-08T02:52:37.849Z,80.3
2017-09-08T02:53:39.454Z,80.5
2017-09-08T02:54:41.062Z,80.3
2017-09-08T02:55:42.666Z,80.1
2017-09-08T02:56:44.274Z,80.1
2017-09-08T02:57:45.881Z,80.2
2017-09-08T02:58:47.493Z,80.2
2017-09-08T02:59:49.108Z,80.2
2017-09-08T03:00:50.706Z,80.2
2017-09-08T03:01:52.316Z,79.9
2017-09-08T03:02:53.920Z,80.2
2017-09-08T03:03:55.530Z,80.3
2017-09-08T03:04:57.136Z,80.3
2017-09-08T03:05:58.749Z,80.3
2017-09-08T03:07:00.357Z,80.1
2017-09-08T03:08:01.970Z,80.4
2017-09-08T03:09:03.578Z,80.5
2017-09-08T03:10:05.184Z,80.1
2017-09-08T03:11:06.795Z,80.2
2017-09-08T03:12:08.401Z,80.3
2017-09-08T03:13:10.007Z,80.1
2017-09-08T03:14:11.617Z,79.9
2017-09-08T03:15:13.235Z,80.7
2017-09-08T03:16:14.840Z,80.4
2017-09-08T03:17:16.445Z,80.0
2017-09-08T03:18:18.056Z,80.2
2017-09-08T03:19:19.667Z,80.2
2017-09-08T03:20:21.274Z,79.9
2017-09-08T03:21:22.882Z,80.1
2017-09-08T03:22:24.495Z,80.2
2017-09-08T03:23:26.104Z,80.2
2017-09-08T03:24:27.710Z,80.2
2017-09-08T03:25:29.317Z,80.2
2017-09-08T03:26:30.932Z,80.2
2017-09-08T03:27:32.539Z,80.3
2017-09-08T03:28:34.152Z,80.2
2017-09-08T03:29:35.760Z,80.2
2017-09-08T03:30:37.368Z,80.2
2017-09-08T03:31:38.972Z,80.1
2017-09-08T03:32:40.578Z,80.2
2017-09-08T03:33:42.186Z,80.7
2017-09-08T03:34:43.801Z,80.7
2017-09-08T03:35:45.413Z,80.3
2017-09-08T03:36:47.017Z,80.9
2017-09-08T03:37:48.622Z,80.6
2017-09-08T03:38:50.233Z,80.5
2017-09-08T03:39:51.845Z,80.5
2017-09-08T03:40:53.448Z,80.8
2017-09-08T03:41:55.057Z,80.4
2017-09-08T03:42:56.672Z,80.6
2017-09-08T03:43:58.278Z,80.6
2017-09-08T03:44:59.890Z,80.5
2017-09-08T03:46:01.495Z,80.9
2017-09-08T03:47:03.101Z,80.2
2017-09-08T03:48:04.708Z,80.0
2017-09-08T03:49:06.324Z,80.1
2017-09-08T03:50:07.934Z,80.2
2017-09-08T03:51:09.535Z,80.7
2017-09-08T03:52:11.151Z,80.8
2017-09-08T03:53:12.755Z,80.8
2017-09-08T03:54:14.368Z,80.9
2017-09-08T03:55:15.970Z,80.2
2017-09-08T03:56:17.590Z,80.2
2017-09-08T03:57:19.193Z,80.2
2017-09-08T03:58:20.805Z,80.5
2017-09-08T03:59:22.407Z,80.1
2017-09-08T04:00:24.019Z,80.5
2017-09-08T04:01:25.627Z,80.7
2017-09-08T04:02:27.237Z,80.8
2017-09-08T04:03:28.846Z,80.4
2017-09-08T04:04:30.451Z,80.7
2017-09-08T04:05:32.064Z,80.7
2017-09-08T04:06:33.665Z,80.7
2017-09-08T04:07:35.279Z,80.8
2017-09-08T04:08:36.880Z,80.2
2017-09-08T04:09:38.493Z,80.4
2017-09-08T04:10:40.097Z,80.6
2017-09-08T04:11:41.710Z,80.4
2017-09-08T04:12:43.313Z,80.5
2017-09-08T04:13:44.921Z,80.9
2017-09-08T04:14:46.526Z,80.6
2017-09-08T04:15:48.136Z,80.6
2017-09-08T04:16:49.742Z,80.3
2017-09-08T04:17:51.354Z,80.6
2017-09-08T04:18:52.959Z,80.5
2017-09-08T04:19:54.567Z,80.7
2017-09-08T04:20:56.171Z,80.8
2017-09-08T04:21:57.777Z,80.5
2017-09-08T04:22:59.383Z,80.8
2017-09-08T04:24:00.995Z,80.9
2017-09-08T04:25:02.606Z,80.8
2017-09-08T04:26:04.213Z,80.7
2017-09-08T04:27:05.821Z,80.7
2017-09-08T04:28:07.429Z,80.1
2017-09-08T04:29:09.038Z,80.6
2017-09-08T04:30:10.644Z,80.4
2017-09-08T04:31:12.252Z,80.8
2017-09-08T04:32:13.863Z,80.4
2017-09-08T04:33:15.477Z,80.9
2017-09-08T04:34:17.081Z,80.5
2017-09-08T04:35:18.685Z,80.8
2017-09-08T04:36:20.294Z,80.2
2017-09-08T04:37:21.903Z,80.4
2017-09-08T04:38:23.516Z,80.7
2017-09-08T04:39:25.126Z,80.7
2017-09-08T04:40:26.735Z,80.6
2017-09-08T04:41:28.338Z,80.7
2017-09-08T04:42:29.946Z,80.4
2017-09-08T04:43:31.560Z,80.9
2017-09-08T04:44:33.161Z,80.4
2017-09-08T04:45:34.773Z,80.6
2017-09-08T04:46:36.383Z,80.8
2017-09-08T04:47:37.997Z,80.3
2017-09-08T04:48:39.608Z,80.6
2017-09-08T04:49:41.219Z,80.1
2017-09-08T04:50:42.823Z,80.2
2017-09-08T04:51:44.430Z,80.2
2017-09-08T04:52:46.045Z,80.3
2017-09-08T04:53:47.658Z,80.2
2017-09-08T04:54:49.270Z,80.3
2017-09-08T04:55:50.874Z,80.2
2017-09-08T04:56:52.486Z,80.5
2017-09-08T04:57:54.093Z,80.2
2017-09-08T04:58:55.705Z,79.9
2017-09-08T04:59:57.315Z,80.3
2017-09-08T05:00:58.930Z,80.5
2017-09-08T05:02:00.541Z,80.0
2017-09-08T05:03:02.171Z,80.1
2017-09-08T05:04:03.775Z,80.1
2017-09-08T05:05:05.386Z,80.1
2017-09-08T05:06:06.999Z,80.3
2017-09-08T05:07:08.614Z,80.2
2017-09-08T05:08:10.228Z,79.9
2017-09-08T05:09:11.844Z,80.4
2017-09-08T05:10:13.444Z,79.9
2017-09-08T05:11:15.055Z,80.4
2017-09-08T05:12:16.669Z,79.8
2017-09-08T05:13:18.277Z,79.8
2017-09-08T05:14:19.898Z,79.3
2017-09-08T05:15:21.504Z,79.7
2017-09-08T05:16:23.123Z,79.2
2017-09-08T05:17:24.732Z,79.3
2017-09-08T05:18:26.345Z,79.1
2017-09-08T05:19:27.952Z,79.6
2017-09-08T05:20:29.719Z,79.5
2017-09-08T05:21:31.340Z,79.5
2017-09-08T05:22:32.950Z,79.2
2017-09-08T05:23:34.565Z,79.3
2017-09-08T05:24:36.167Z,79.5
2017-09-08T05:25:37.776Z,79.1
2017-09-08T05:26:39.392Z,79.0
2017-09-08T05:27:41.005Z,79.4
2017-09-08T05:28:42.618Z,78.8
2017-09-08T05:29:44.226Z,79.2
2017-09-08T05:30:45.840Z,78.3
2017-09-08T05:31:47.454Z,78.6
2017-09-08T05:32:49.064Z,78.5
2017-09-08T05:33:50.669Z,78.4
2017-09-08T05:34:52.280Z,78.2
2017-09-08T05:35:53.896Z,78.1
2017-09-08T05:36:55.511Z,78.0
2017-09-08T05:37:57.127Z,77.8
2017-09-08T05:38:58.741Z,78.0
2017-09-08T05:40:00.354Z,78.6
2017-09-08T05:41:01.961Z,78.2
2017-09-08T05:42:03.576Z,78.2
2017-09-08T05:43:05.188Z,78.3
2017-09-08T05:44:06.797Z,78.7
2017-09-08T05:45:08.407Z,78.9
2017-09-08T05:46:10.021Z,78.8
2017-09-08T05:47:11.782Z,78.6
2017-09-08T05:48:13.397Z,78.6
2017-09-08T05:49:15.003Z,78.4
2017-09-08T05:50:16.617Z,78.6
2017-09-08T05:51:18.227Z,78.3
2017-09-08T05:52:19.844Z,78.9
2017-09-08T05:53:21.459Z,78.6
2017-09-08T05:54:23.068Z,78.6
2017-09-08T05:55:24.680Z,79.0
2017-09-08T05:56:26.292Z,79.1
2017-09-08T05:57:27.904Z,78.6
2017-09-08T05:58:29.519Z,78.7
2017-09-08T05:59:31.133Z,78.6
2017-09-08T06:00:32.745Z,78.8
2017-09-08T06:01:34.660Z,78.3
2017-09-08T06:02:36.258Z,78.5
2017-09-08T06:03:37.872Z,78.3
2017-09-08T06:04:39.479Z,78.4
2017-09-08T06:05:41.097Z,78.9
2017-09-08T06:06:42.705Z,78.8
2017-09-08T06:07:44.320Z,78.3
2017-09-08T06:08:45.930Z,78.2
2017-09-08T06:09:47.538Z,78.5
2017-09-08T06:10:49.146Z,78.6
2017-09-08T06:11:50.762Z,78.3
2017-09-08T06:12:52.368Z,78.8
2017-09-08T06:13:53.987Z,78.4
2017-09-08T06:14:55.592Z,78.5
2017-09-08T06:15:57.206Z,78.3
2017-09-08T06:16:58.815Z,78.3
2017-09-08T06:18:00.432Z,78.3
2017-09-08T06:19:02.038Z,78.8
2017-09-08T06:20:03.651Z,79.2
2017-09-08T06:21:05.268Z,79.0
2017-09-08T06:22:06.882Z,79.3
2017-09-08T06:23:08.492Z,79.4
2017-09-08T06:24:10.103Z,79.1
2017-09-08T06:25:11.721Z,79.1
2017-09-08T06:26:13.330Z,79.9
2017-09-08T06:27:14.947Z,79.3
2017-09-08T06:28:16.556Z,79.6
2017-09-08T06:29:18.172Z,79.8
2017-09-08T06:30:19.781Z,79.7
2017-09-08T06:31:21.390Z,80.3
2017-09-08T06:32:23.007Z,80.1
2017-09-08T06:33:24.623Z,80.4
2017-09-08T06:34:26.232Z,79.8
2017-09-08T06:35:27.853Z,79.5
2017-09-08T06:36:29.468Z,79.5
2017-09-08T06:37:31.076Z,79.3
2017-09-08T06:38:32.687Z,79.5
2017-09-08T06:39:34.305Z,78.9
2017-09-08T06:40:35.920Z,79.2
2017-09-08T06:41:37.530Z,79.6
2017-09-08T06:42:39.149Z,79.2
2017-09-08T06:43:40.759Z,79.5
2017-09-08T06:44:42.373Z,79.5
2017-09-08T06:45:43.982Z,79.3
2017-09-08T06:46:45.599Z,78.9
2017-09-08T06:47:47.216Z,79.1
2017-09-08T06:48:48.825Z,79.3
2017-09-08T06:49:50.446Z,78.7
2017-09-08T06:50:52.051Z,79.3
2017-09-08T06:51:53.665Z,78.8
2017-09-08T06:52:55.282Z,78.6
2017-09-08T06:53:56.889Z,79.0
2017-09-08T06:54:58.501Z,78.9
2017-09-08T06:56:00.117Z,78.6
2017-09-08T06:57:01.736Z,78.8
2017-09-08T06:58:03.346Z,78.8
2017-09-08T06:59:04.957Z,78.6
2017-09-08T07:00:06.575Z,78.5
2017-09-08T07:01:08.184Z,78.7
2017-09-08T07:02:09.800Z,78.6
2017-09-08T07:03:11.411Z,79.1
2017-09-08T07:04:13.030Z,79.0
2017-09-08T07:05:14.637Z,79.7
2017-09-08T07:06:16.252Z,79.5
2017-09-08T07:07:17.863Z,79.6
2017-09-08T07:08:19.480Z,79.6
2017-09-08T07:09:21.091Z,79.1
2017-09-08T07:10:22.709Z,79.2
2017-09-08T07:11:24.319Z,79.2
2017-09-08T07:12:25.934Z,79.2
2017-09-08T07:13:27.543Z,79.5
2017-09-08T07:14:29.158Z,79.5
2017-09-08T07:15:30.773Z,79.5
2017-09-08T07:16:32.384Z,78.8
2017-09-08T07:17:34.001Z,78.8
2017-09-08T07:18:35.612Z,79.0
2017-09-08T07:19:37.227Z,79.5
2017-09-08T07:20:38.833Z,79.1
2017-09-08T07:21:40.453Z,78.8
2017-09-08T07:22:42.062Z,78.4
2017-09-08T07:23:43.677Z,78.6
2017-09-08T07:24:45.288Z,78.6
2017-09-08T07:25:46.909Z,78.4
2017-09-08T07:26:48.523Z,78.7
2017-09-08T07:27:50.134Z,78.4
2017-09-08T07:28:51.750Z,78.3
2017-09-08T07:29:53.360Z,78.1
2017-09-08T07:30:54.969Z,78.3
2017-09-08T07:31:56.581Z,78.3
2017-09-08T07:32:58.200Z,77.8
2017-09-08T07:33:59.814Z,77.0
2017-09-08T07:35:01.424Z,77.2
2017-09-08T07:36:03.034Z,77.2
2017-09-08T07:37:04.654Z,77.2
2017-09-08T07:38:06.269Z,76.0
2017-09-08T07:39:07.879Z,76.0
2017-09-08T07:40:09.492Z,76.1
2017-09-08T07:41:11.109Z,75.4
2017-09-08T07:42:12.722Z,75.4
2017-09-08T07:43:14.332Z,75.0
2017-09-08T07:44:15.944Z,74.4
2017-09-08T07:45:17.564Z,74.3
2017-09-08T07:46:19.183Z,74.4
2017-09-08T07:47:20.792Z,74.2
2017-09-08T07:48:22.410Z,74.5
2017-09-08T07:49:24.018Z,74.4
2017-09-08T07:50:25.629Z,74.3
2017-09-08T07:51:27.248Z,74.6
2017-09-08T07:52:28.864Z,74.7
2017-09-08T07:53:30.476Z,74.7
2017-09-08T07:54:32.092Z,75.1
2017-09-08T07:55:33.711Z,74.3
2017-09-08T07:56:35.318Z,73.8
2017-09-08T07:57:36.936Z,73.7
2017-09-08T07:58:38.546Z,73.9
2017-09-08T07:59:40.165Z,73.7
2017-09-08T08:00:41.775Z,74.9
2017-09-08T08:01:43.397Z,75.7
2017-09-08T08:02:45.006Z,75.6
2017-09-08T08:03:46.623Z,75.1
2017-09-08T08:04:48.235Z,74.8
2017-09-08T08:05:49.853Z,75.9
2017-09-08T08:06:51.462Z,75.4
2017-09-08T08:07:53.079Z,76.3
2017-09-08T08:08:54.695Z,76.2
2017-09-08T08:09:56.312Z,76.5
2017-09-08T08:10:57.922Z,76.8
2017-09-08T08:11:59.542Z,77.2
2017-09-08T08:13:01.155Z,78.3
2017-09-08T08:14:02.769Z,78.9
2017-09-08T08:15:04.384Z,80.0
2017-09-08T08:16:05.996Z,80.2
2017-09-08T08:17:07.615Z,80.6
2017-09-08T08:18:09.224Z,80.8
2017-09-08T08:19:10.843Z,80.8
2017-09-08T08:20:12.452Z,80.8
2017-09-08T08:21:14.068Z,81.2
2017-09-08T08:22:15.679Z,81.1
2017-09-08T08:23:17.297Z,81.6
2017-09-08T08:24:18.906Z,82.0
2017-09-08T08:25:20.524Z,82.5
2017-09-08T08:26:22.134Z,82.3
2017-09-08T08:27:23.750Z,81.9
2017-09-08T08:28:25.362Z,81.5
2017-09-08T08:29:26.973Z,82.2
2017-09-08T08:30:28.594Z,81.3
2017-09-08T08:31:30.207Z,83.0
2017-09-08T08:32:31.813Z,82.0
2017-09-08T08:33:33.425Z,81.4
2017-09-08T08:34:35.041Z,82.7
2017-09-08T08:35:36.658Z,82.1
2017-09-08T08:36:38.275Z,80.8
2017-09-08T08:37:39.881Z,82.2
2017-09-08T08:38:41.497Z,81.5
2017-09-08T08:39:43.118Z,81.1
2017-09-08T08:40:44.724Z,81.3
2017-09-08T08:41:46.333Z,81.7
2017-09-08T08:42:47.950Z,82.6
2017-09-08T08:43:49.565Z,82.5
2017-09-08T08:44:51.176Z,82.1
2017-09-08T08:45:52.793Z,82.7
2017-09-08T08:46:54.401Z,83.1
2017-09-08T08:47:56.013Z,83.0
2017-09-08T08:48:57.632Z,83.0
2017-09-08T08:49:59.246Z,84.0
2017-09-08T08:51:00.858Z,83.6
2017-09-08T08:52:02.469Z,83.3
2017-09-08T08:53:04.088Z,82.5
2017-09-08T08:54:05.703Z,83.2
2017-09-08T08:55:07.312Z,83.1
2017-09-08T08:56:08.923Z,83.6
2017-09-08T08:57:10.543Z,83.7
2017-09-08T08:58:12.157Z,84.5
2017-09-08T08:59:13.770Z,84.1
2017-09-08T09:00:15.381Z,83.6
2017-09-08T09:01:16.998Z,83.3
2017-09-08T09:02:18.616Z,83.9
2017-09-08T09:03:20.226Z,83.6
2017-09-08T09:04:21.837Z,84.0
2017-09-08T09:05:23.461Z,82.3
2017-09-08T09:06:25.074Z,82.8
2017-09-08T09:07:26.683Z,83.7
2017-09-08T09:08:28.292Z,83.1
2017-09-08T09:09:29.914Z,83.5
2017-09-08T09:10:31.522Z,83.1
2017-09-08T09:11:33.133Z,81.9
2017-09-08T09:12:34.747Z,81.4
2017-09-08T09:13:36.367Z,82.3
2017-09-08T09:14:37.979Z,81.6
2017-09-08T09:15:39.588Z,81.7
2017-09-08T09:16:41.204Z,81.4
2017-09-08T09:17:42.816Z,80.8
2017-09-08T09:18:44.428Z,80.5
2017-09-08T09:19:46.046Z,80.9
2017-09-08T09:20:47.663Z,81.3
2017-09-08T09:21:49.272Z,80.6
2017-09-08T09:22:50.881Z,80.0
2017-09-08T09:23:52.499Z,80.5
2017-09-08T09:24:54.114Z,79.8
2017-09-08T09:25:55.723Z,79.4
2017-09-08T09:26:57.340Z,80.0
2017-09-08T09:27:58.960Z,79.2
2017-09-08T09:29:00.573Z,79.0
2017-09-08T09:30:02.184Z,78.3
2017-09-08T09:31:03.796Z,78.7
2017-09-08T09:32:05.412Z,79.0
2017-09-08T09:33:07.024Z,78.5
2017-09-08T09:34:08.636Z,78.6
2017-09-08T09:35:10.250Z,78.2
2017-09-08T09:36:11.867Z,77.7
2017-09-08T09:37:13.476Z,77.9
2017-09-08T09:38:15.093Z,78.8
2017-09-08T09:39:16.704Z,77.3
2017-09-08T09:40:18.323Z,77.5
2017-09-08T09:41:19.933Z,76.8
2017-09-08T09:42:21.552Z,76.8
2017-09-08T09:43:23.166Z,76.7
2017-09-08T09:44:24.773Z,77.1
2017-09-08T09:45:26.390Z,77.8
2017-09-08T09:46:28.005Z,77.3
2017-09-08T09:47:29.623Z,77.3
2017-09-08T09:48:31.237Z,76.8
2017-09-08T09:49:32.853Z,77.6
2017-09-08T09:50:34.461Z,77.1
2017-09-08T09:51:36.079Z,76.5
2017-09-08T09:52:37.690Z,76.6
2017-09-08T09:53:39.308Z,76.8
2017-09-08T09:54:40.922Z,75.7
2017-09-08T09:55:42.538Z,76.6
2017-09-08T09:56:44.153Z,76.2
2017-09-08T09:57:45.767Z,75.4
2017-09-08T09:58:47.375Z,75.6
2017-09-08T09:59:48.985Z,75.3
2017-09-08T10:00:50.605Z,75.9
2017-09-08T10:01:52.220Z,75.5
2017-09-08T10:02:53.833Z,75.2
2017-09-08T10:03:55.449Z,75.3
2017-09-08T10:04:57.058Z,74.7
2017-09-08T10:05:58.673Z,75.0
2017-09-08T10:07:00.284Z,75.9
2017-09-08T10:08:01.904Z,75.4
2017-09-08T10:09:03.519Z,75.4
2017-09-08T10:10:05.134Z,74.7
2017-09-08T10:11:06.746Z,75.0
2017-09-08T10:12:08.361Z,74.8
2017-09-08T10:13:09.972Z,74.8
2017-09-08T10:14:11.590Z,74.5
2017-09-08T10:15:13.203Z,74.7
2017-09-08T10:16:14.820Z,75.3
2017-09-08T10:17:16.432Z,75.3
2017-09-08T10:18:18.052Z,74.9
2017-09-08T10:19:19.662Z,75.4
2017-09-08T10:20:21.278Z,75.3
2017-09-08T10:21:22.890Z,75.7
2017-09-08T10:22:24.507Z,75.6
2017-09-08T10:23:26.128Z,76.0
2017-09-08T10:24:27.742Z,76.7
2017-09-08T10:25:29.355Z,77.1
2017-09-08T10:26:30.964Z,77.1
2017-09-08T10:27:32.580Z,78.0
2017-09-08T10:28:34.194Z,77.7
2017-09-08T10:29:35.805Z,78.6
2017-09-08T10:30:37.420Z,79.7
2017-09-08T10:31:39.040Z,81.5
2017-09-08T10:32:40.657Z,82.2
2017-09-08T10:33:42.272Z,82.8
2017-09-08T10:34:43.879Z,83.7
2017-09-08T10:35:45.496Z,83.6
2017-09-08T10:36:47.107Z,84.3
2017-09-08T10:37:48.724Z,86.1
2017-09-08T10:38:50.335Z,86.6
2017-09-08T10:39:51.949Z,88.1
2017-09-08T10:40:53.567Z,88.8
2017-09-08T10:41:55.173Z,88.5
2017-09-08T10:42:56.787Z,88.8
2017-09-08T10:43:58.409Z,90.3
2017-09-08T10:45:00.023Z,89.9
2017-09-08T10:46:01.631Z,90.4
2017-09-08T10:47:03.248Z,90.0
2017-09-08T10:48:04.861Z,89.9
2017-09-08T10:49:06.480Z,90.6
2017-09-08T10:50:08.093Z,91.3
2017-09-08T10:51:09.709Z,91.0
2017-09-08T10:52:11.324Z,91.5
2017-09-08T10:53:12.938Z,89.9
2017-09-08T10:54:14.552Z,90.9
2017-09-08T10:55:16.170Z,90.5
2017-09-08T10:56:17.795Z,91.3
2017-09-08T10:57:19.405Z,90.9
2017-09-08T10:58:21.020Z,90.8
2017-09-08T10:59:22.631Z,92.6
2017-09-08T11:00:24.251Z,91.7
2017-09-08T11:01:25.861Z,90.8
2017-09-08T11:02:27.479Z,91.6
2017-09-08T11:03:29.088Z,91.1
2017-09-08T11:04:30.704Z,92.9
2017-09-08T11:05:32.311Z,92.6
2017-09-08T11:06:33.924Z,92.5
2017-09-08T11:07:35.538Z,92.6
2017-09-08T11:08:37.155Z,93.1
2017-09-08T11:09:38.778Z,93.5
2017-09-08T11:10:40.383Z,93.7
2017-09-08T11:11:41.996Z,93.2
2017-09-08T11:12:43.607Z,94.6
2017-09-08T11:13:45.222Z,94.2
2017-09-08T11:14:46.840Z,94.7
2017-09-08T11:15:48.461Z,94.9
2017-09-08T11:16:50.063Z,95.3
2017-09-08T11:17:51.673Z,95.6
2017-09-08T11:18:53.293Z,95.6
2017-09-08T11:19:54.910Z,96.5
2017-09-08T11:20:56.520Z,96.4
2017-09-08T11:21:58.133Z,97.3
2017-09-08T11:22:59.752Z,98.0
2017-09-08T11:24:01.366Z,97.5
2017-09-08T11:25:02.975Z,98.0
2017-09-08T11:26:04.587Z,97.4
2017-09-08T11:27:06.204Z,97.8
2017-09-08T11:28:07.822Z,98.4
2017-09-08T11:29:09.432Z,98.6
2017-09-08T11:30:11.048Z,98.3
2017-09-08T11:31:12.656Z,99.8
2017-09-08T11:32:14.267Z,98.7
2017-09-08T11:33:15.882Z,99.7
2017-09-08T11:34:17.496Z,99.4
2017-09-08T11:35:19.108Z,99.6
2017-09-08T11:36:20.723Z,99.4
2017-09-08T11:37:22.345Z,100.0
2017-09-08T11:38:23.959Z,100.0
2017-09-08T11:39:25.569Z,100.0
2017-09-08T11:40:27.181Z,100.0
2017-09-08T11:41:28.800Z,100.0
2017-09-08T11:42:30.421Z,100.0
2017-09-08T11:43:32.031Z,100.0
2017-09-08T11:44:33.643Z,100.0
2017-09-08T11:45:35.260Z,100.0
2017-09-08T11:46:36.903Z,100.0
2017-09-08T11:47:38.492Z,100.0
2017-09-08T11:48:40.101Z,100.0
2017-09-08T11:49:41.720Z,100.0
2017-09-08T11:50:43.331Z,100.0
2017-09-08T11:51:44.952Z,100.0
2017-09-08T11:52:46.562Z,100.0
2017-09-08T11:53:48.180Z,100.0
2017-09-08T11:54:49.790Z,100.0
2017-09-08T11:55:51.407Z,100.0
2017-09-08T11:56:53.020Z,100.0
2017-09-08T11:57:54.641Z,100.0
2017-09-08T11:58:56.252Z,100.0
2017-09-08T11:59:57.867Z,100.0
2017-09-08T12:00:59.477Z,100.0
2017-09-08T12:02:01.093Z,100.0
2017-09-08T12:03:02.709Z,100.0
2017-09-08T12:04:04.321Z,100.0
2017-09-08T12:05:05.940Z,100.0
2017-09-08T12:06:07.552Z,100.0
2017-09-08T12:07:09.172Z,100.0
2017-09-08T12:08:10.782Z,100.0
2017-09-08T12:09:12.400Z,100.0
2017-09-08T12:10:14.011Z,100.0
2017-09-08T12:11:15.627Z,100.0
2017-09-08T12:12:17.238Z,100.0
2017-09-08T12:13:18.862Z,100.0
2017-09-08T12:14:20.468Z,100.0
2017-09-08T12:15:22.087Z,100.0
2017-09-08T12:16:23.698Z,100.0
2017-09-08T12:17:25.315Z,100.0
2017-09-08T12:18:26.927Z,100.0
2017-09-08T12:19:28.548Z,100.0
2017-09-08T12:20:30.159Z,100.0
2017-09-08T12:21:31.777Z,100.0
2017-09-08T12:22:33.384Z,100.0
2017-09-08T12:23:34.999Z,100.0
2017-09-08T12:24:36.613Z,100.0
2017-09-08T12:25:38.227Z,100.0
2017-09-08T12:26:39.837Z,100.0
2017-09-08T12:27:41.454Z,100.0
2017-09-08T12:28:43.070Z,100.0
2017-09-08T12:29:44.685Z,100.0
2017-09-08T12:30:46.294Z,100.0
2017-09-08T12:31:47.907Z,100.0
2017-09-08T12:32:49.526Z,100.0
2017-09-08T12:33:51.144Z,100.0
2017-09-08T12:34:52.756Z,100.0
2017-09-08T12:35:54.365Z,100.0
2017-09-08T12:36:55.981Z,100.0
2017-09-08T12:37:57.596Z,100.0
2017-09-08T12:38:59.206Z,100.0
2017-09-08T12:40:00.821Z,100.0
2017-09-08T12:41:02.438Z,100.0
2017-09-08T12:42:04.056Z,100.0
2017-09-08T12:43:05.666Z,100.0
2017-09-08T12:44:07.283Z,100.0
2017-09-08T12:45:08.892Z,100.0
2017-09-08T12:46:10.504Z,100.0
2017-09-08T12:47:12.129Z,100.0
2017-09-08T12:48:13.740Z,100.0
2017-09-08T12:49:15.351Z,100.0
2017-09-08T12:50:16.964Z,100.0
2017-09-08T12:51:18.581Z,100.0
2017-09-08T12:52:20.220Z,100.0
2017-09-08T12:53:21.812Z,100.0
2017-09-08T12:54:23.428Z,100.0
2017-09-08T12:55:25.039Z,100.0
2017-09-08T12:56:26.652Z,100.0
2017-09-08T12:57:28.269Z,100.0
2017-09-08T12:58:29.885Z,100.0
2017-09-08T12:59:31.500Z,100.0
2017-09-08T13:00:33.112Z,100.0
2017-09-08T13:01:34.729Z,100.0
2017-09-08T13:02:36.338Z,100.0
2017-09-08T13:03:37.967Z,100.0
2017-09-08T13:04:39.568Z,100.0
2017-09-08T13:05:41.185Z,100.0
2017-09-08T13:06:42.799Z,100.0
2017-09-08T13:07:44.415Z,100.0
2017-09-08T13:08:46.025Z,100.0
2017-09-08T13:09:47.645Z,100.0
2017-09-08T13:10:49.258Z,100.0
2017-09-08T13:11:50.876Z,100.0
2017-09-08T13:12:52.486Z,100.0
2017-09-08T13:13:54.105Z,100.0
2017-09-08T13:14:55.712Z,100.0
2017-09-08T13:15:57.335Z,100.0
2017-09-08T13:16:58.951Z,100.0
2017-09-08T13:18:00.562Z,100.0
2017-09-08T13:19:02.181Z,100.0
2017-09-08T13:20:03.799Z,100.0
2017-09-08T13:21:05.409Z,100.0
2017-09-08T13:22:07.019Z,100.0
2017-09-08T13:23:08.639Z,100.0
2017-09-08T13:24:10.250Z,100.0
2017-09-08T13:25:11.871Z,100.0
2017-09-08T13:26:13.483Z,100.0
2017-09-08T13:27:15.100Z,100.0
2017-09-08T13:28:16.714Z,100.0
2017-09-08T13:29:18.326Z,100.0
2017-09-08T13:30:19.948Z,100.0
2017-09-08T13:31:21.561Z,100.0
2017-09-08T13:32:23.175Z,100.0
2017-09-08T13:33:24.792Z,100.0
2017-09-08T13:34:26.400Z,100.0
2017-09-08T13:35:28.017Z,100.0
2017-09-08T13:36:29.626Z,100.0
2017-09-08T13:37:31.255Z,100.0